Time;durP1;ratioP1;P1;durP2;ratioP2;P2;SDS_P1;SDS_P2;PMS_P1;PMS_P2;Temp;Humidity;BMP_temperature;BMP_pressure;BME280_temperature;BME280_humidity;BME280_pressure;Samples;Min_cycle;Max_cycle;Signal;HPM_P1;HPM_P2
2021/06/12 00:02:16;;;;;;;13.85;12.63;;;;;;;;;;3612197;39;20792;-71
2021/06/12 00:04:44;;;;;;;16.50;14.80;;;;;;;;;;3608663;39;20380;-72
2021/06/12 00:07:10;;;;;;;14.88;13.45;;;;;;;;;;3607142;39;20415;-72
2021/06/12 00:09:36;;;;;;;11.27;10.27;;;;;;;;;;3606771;39;20375;-72
2021/06/12 00:12:03;;;;;;;13.10;11.80;;;;;;;;;;3606858;39;21116;-72
2021/06/12 00:14:29;;;;;;;13.77;12.57;;;;;;;;;;3611347;39;20358;-72
2021/06/12 00:16:55;;;;;;;15.32;13.93;;;;;;;;;;3609688;39;20367;-72
2021/06/12 00:19:21;;;;;;;13.48;12.18;;;;;;;;;;3613378;39;20367;-72
2021/06/12 00:21:49;;;;;;;14.27;12.65;;;;;;;;;;3613531;39;20350;-72
2021/06/12 00:24:15;;;;;;;13.77;12.47;;;;;;;;;;3605999;39;20484;-72
2021/06/12 00:26:41;;;;;;;13.60;12.30;;;;;;;;;;3605768;39;20409;-74
2021/06/12 00:29:07;;;;;;;13.10;11.90;;;;;;;;;;3608152;39;20394;-75
2021/06/12 00:31:34;;;;;;;13.43;12.10;;;;;;;;;;3612319;39;20757;-74
2021/06/12 00:34:00;;;;;;;14.40;13.00;;;;;;;;;;3609081;39;20384;-75
2021/06/12 00:36:26;;;;;;;13.37;12.17;;;;;;;;;;3612156;39;20377;-74
2021/06/12 00:38:54;;;;;;;13.45;12.23;;;;;;;;;;3610703;39;20844;-75
2021/06/12 00:41:20;;;;;;;13.35;12.10;;;;;;;;;;3609367;39;20377;-75
2021/06/12 00:43:47;;;;;;;12.45;11.35;;;;;;;;;;3614427;39;20392;-74
2021/06/12 00:46:13;;;;;;;14.77;13.38;;;;;;;;;;3614549;39;20374;-75
2021/06/12 00:48:42;;;;;;;13.88;12.65;;;;;;;;;;3613509;39;20404;-74
2021/06/12 00:51:08;;;;;;;11.65;10.55;;;;;;;;;;3615238;39;20444;-74
2021/06/12 00:53:40;;;;;;;11.10;10.00;;;;;;;;;;3611361;39;20390;-74
2021/06/12 00:56:09;;;;;;;11.43;10.43;;;;;;;;;;3609237;39;20363;-74
2021/06/12 00:58:36;;;;;;;11.52;10.45;;;;;;;;;;3608022;39;20398;-74
2021/06/12 01:01:02;;;;;;;11.52;10.00;;;;;;;;;;3608095;39;20787;-75
2021/06/12 01:03:29;;;;;;;10.83;9.70;;;;;;;;;;3646175;22;20481;-76
2021/06/12 01:05:55;;;;;;;8.85;8.05;;;;;;;;;;3617666;39;20370;-74
2021/06/12 01:08:21;;;;;;;7.82;7.13;;;;;;;;;;3617142;39;20370;-74
2021/06/12 01:10:47;;;;;;;9.73;8.73;;;;;;;;;;3608245;39;20373;-74
2021/06/12 01:13:24;;;;;;;10.02;8.75;;;20.40;99.90;;;;;;3617879;39;20745;-75
2021/06/12 01:15:55;;;;;;;8.93;8.07;;;;;;;;;;3614639;39;20369;-77
2021/06/12 01:18:25;;;;;;;8.25;7.45;;;;;;;;;;3617532;39;20454;-74
2021/06/12 01:21:24;;;;;;;9.87;7.90;;;;;;;;;;3608027;39;20381;-74
2021/06/12 01:24:14;;;;;;;8.05;7.25;;;;;;;;;;3585728;40;20366;-74
2021/06/12 01:26:45;;;;;;;7.68;6.97;;;;;;;;;;3577809;40;20817;-74
2021/06/12 01:29:20;;;;;;;7.17;6.53;;;;;;;;;;3585677;40;20378;-78
2021/06/12 01:31:48;;;;;;;6.90;6.30;;;;;;;;;;3577479;40;20398;-74
2021/06/12 01:34:14;;;;;;;8.95;8.15;;;;;;;;;;3585513;40;20378;-74
2021/06/12 01:36:41;;;;;;;10.25;9.30;;;;;;;;;;3585482;40;20636;-75
2021/06/12 01:39:08;;;;;;;10.00;9.15;;;;;;;;;;3584115;40;20476;-75
2021/06/12 01:41:34;;;;;;;11.73;10.32;;;;;;;;;;3596356;39;20743;-74
2021/06/12 01:44:01;;;;;;;10.85;9.85;;;;;;;;;;3612682;39;20882;-74
2021/06/12 01:46:28;;;;;;;10.07;9.17;;;;;;;;;;3610285;39;20357;-74
2021/06/12 01:48:58;;;;;;;15.02;12.93;;;;;;;;;;3617908;39;20630;-74
2021/06/12 01:51:25;;;;;;;13.07;11.77;;;;;;;;;;3614810;39;20386;-75
2021/06/12 01:53:52;;;;;;;11.10;10.00;;;;;;;;;;3608668;39;20389;-76
2021/06/12 01:56:18;;;;;;;13.13;11.82;;;;;;;;;;3617741;39;20473;-76
2021/06/12 01:58:45;;;;;;;11.52;10.43;;;;;;;;;;3605703;39;20378;-75
2021/06/12 02:01:12;;;;;;;13.02;11.75;;;;;;;;;;3607770;39;20370;-74
2021/06/12 02:03:40;;;;;;;12.27;11.10;;;;;;;;;;3615952;39;20420;-77
2021/06/12 02:06:10;;;;;;;15.73;14.18;;;;;;;;;;3617466;39;20849;-75
2021/06/12 02:08:36;;;;;;;16.27;14.77;;;;;;;;;;3605314;39;20410;-75
2021/06/12 02:11:02;;;;;;;15.02;13.57;;;;;;;;;;3613696;39;20386;-74
2021/06/12 02:13:28;;;;;;;14.40;12.93;;;;;;;;;;3614184;39;20377;-77
2021/06/12 02:15:56;;;;;;;15.00;13.55;;;;;;;;;;3617464;39;20381;-74
2021/06/12 02:18:23;;;;;;;14.35;12.85;;;;;;;;;;3617777;39;20386;-75
2021/06/12 02:20:50;;;;;;;17.80;16.00;;;;;;;;;;3608011;39;20401;-77
2021/06/12 02:23:18;;;;;;;14.40;12.90;;;;;;;;;;3613704;39;20752;-74
2021/06/12 02:25:45;;;;;;;15.15;13.75;;;;;;;;;;3616131;39;20477;-74
2021/06/12 02:28:12;;;;;;;14.27;12.87;;;;;;;;;;3614517;39;20365;-74
2021/06/12 02:30:41;;;;;;;16.65;14.93;;;;;;;;;;3611015;39;20362;-70
2021/06/12 02:33:09;;;;;;;14.65;13.35;;;;;;;;;;3604175;39;20398;-70
2021/06/12 02:35:35;;;;;;;17.17;15.07;;;;;;;;;;3607801;39;20649;-70
2021/06/12 02:38:01;;;;;;;16.20;14.50;;;19.20;99.90;;;;;;3612991;39;20377;-70
2021/06/12 02:40:29;;;;;;;15.43;13.93;;;18.70;99.90;;;;;;3614267;39;20362;-70
2021/06/12 02:42:55;;;;;;;15.30;13.80;;;18.70;99.90;;;;;;3607893;39;20847;-70
2021/06/12 02:45:24;;;;;;;16.10;13.68;;;18.60;99.90;;;;;;3617277;39;20377;-70
2021/06/12 02:47:53;;;;;;;13.67;12.37;;;18.60;99.90;;;;;;3607729;39;20412;-70
2021/06/12 02:50:21;;;;;;;14.07;12.77;;;;;;;;;;3607999;39;20769;-71
2021/06/12 02:52:47;;;;;;;16.92;15.13;;;;;;;;;;3616897;39;20380;-70
2021/06/12 02:55:15;;;;;;;13.52;12.10;;;;;;;;;;3617303;39;20429;-70
2021/06/12 02:57:45;;;;;;;14.90;13.50;;;;;;;;;;3610143;39;20426;-68
2021/06/12 03:00:12;;;;;;;15.00;13.25;;;;;;;;;;3612697;39;20674;-68
2021/06/12 03:02:40;;;;;;;17.10;14.65;;;;;;;;;;3611695;39;20401;-69
2021/06/12 03:05:07;;;;;;;17.65;15.43;;;;;;;;;;3612066;39;20412;-68
2021/06/12 03:07:34;;;;;;;13.23;11.82;;;;;;;;;;3612283;39;20610;-68
2021/06/12 03:10:01;;;;;;;14.23;12.80;;;;;;;;;;3616995;39;20633;-68
2021/06/12 03:12:28;;;;;;;18.35;15.10;;;;;;;;;;3609826;39;20413;-68
2021/06/12 03:14:56;;;;;;;13.18;11.85;;;;;;;;;;3616754;39;20396;-68
2021/06/12 03:17:23;;;;;;;13.88;12.50;;;;;;;;;;3616714;39;20421;-68
2021/06/12 03:19:49;;;;;;;20.83;16.52;;;;;;;;;;3615912;39;20498;-67
2021/06/12 03:22:16;;;;;;;14.70;13.20;;;;;;;;;;3615956;39;20381;-68
2021/06/12 03:24:42;;;;;;;16.23;13.80;;;;;;;;;;3616765;39;20493;-67
2021/06/12 03:27:09;;;;;;;15.55;12.27;;;;;;;;;;3610532;39;20382;-68
2021/06/12 03:29:36;;;;;;;13.85;12.45;;;;;;;;;;3616742;39;20369;-68
2021/06/12 03:32:04;;;;;;;16.25;14.38;;;;;;;;;;3607326;39;20653;-68
2021/06/12 03:34:31;;;;;;;14.88;13.27;;;;;;;;;;3616608;39;20795;-68
2021/06/12 03:36:57;;;;;;;16.57;14.87;;;;;;;;;;3612104;39;20426;-68
2021/06/12 03:39:23;;;;;;;18.70;16.83;;;;;;;;;;3614277;39;20381;-68
2021/06/12 03:41:50;;;;;;;19.13;17.20;;;;;;;;;;3611184;39;20629;-68
2021/06/12 03:44:16;;;;;;;19.70;17.60;;;18.60;99.90;;;;;;3616736;39;20703;-68
2021/06/12 03:46:43;;;;;;;17.83;16.13;;;;;;;;;;3610174;39;20374;-68
2021/06/12 03:49:12;;;;;;;18.13;15.57;;;;;;;;;;3616517;39;20633;-68
2021/06/12 03:51:38;;;;;;;17.00;15.32;;;;;;;;;;3611867;39;20387;-68
2021/06/12 03:54:05;;;;;;;18.88;16.88;;;;;;;;;;3609397;39;20372;-68
2021/06/12 03:56:33;;;;;;;16.33;14.75;;;;;;;;;;3616416;39;20659;-68
2021/06/12 03:59:00;;;;;;;15.63;14.13;;;;;;;;;;3616424;39;20781;-68
2021/06/12 04:01:27;;;;;;;16.23;14.68;;;;;;;;;;3614986;39;20773;-68
2021/06/12 04:03:53;;;;;;;18.73;16.83;;;;;;;;;;3614949;39;20400;-68
2021/06/12 04:06:20;;;;;;;15.82;14.43;;;;;;;;;;3605984;39;20402;-68
2021/06/12 04:08:48;;;;;;;14.60;13.13;;;;;;;;;;3618188;39;20797;-68
2021/06/12 04:11:14;;;;;;;14.57;13.27;;;;;;;;;;3613401;39;20869;-68
2021/06/12 04:13:40;;;;;;;17.65;15.90;;;;;;;;;;3606006;39;20633;-68
2021/06/12 04:16:07;;;;;;;13.80;12.50;;;;;;;;;;3594828;39;20405;-68
2021/06/12 04:18:33;;;;;;;17.05;15.35;;;;;;;;;;3615378;39;20405;-68
2021/06/12 04:21:00;;;;;;;16.05;14.45;;;;;;;;;;3617959;39;20474;-68
2021/06/12 04:23:28;;;;;;;15.05;13.55;;;;;;;;;;3617955;39;20377;-68
2021/06/12 04:25:54;;;;;;;16.90;15.32;;;;;;;;;;3606360;39;20389;-68
2021/06/12 04:28:20;;;;;;;17.48;15.57;;;;;;;;;;3617798;39;20366;-68
2021/06/12 04:30:46;;;;;;;17.60;15.90;;;;;;;;;;3615963;39;20754;-68
2021/06/12 04:33:12;;;;;;;16.15;14.63;;;;;;;;;;3602470;39;20394;-68
2021/06/12 04:35:39;;;;;;;13.93;12.68;;;;;;;;;;3616884;39;20412;-68
2021/06/12 04:38:05;;;;;;;14.25;12.93;;;;;;;;;;3617877;39;20754;-68
2021/06/12 04:40:34;;;;;;;16.27;14.68;;;;;;;;;;3615943;39;20454;-69
2021/06/12 04:43:00;;;;;;;14.65;13.25;;;;;;;;;;3617983;39;20422;-68
2021/06/12 04:45:27;;;;;;;14.82;13.43;;;;;;;;;;3618008;39;20433;-69
2021/06/12 04:47:53;;;;;;;15.73;14.23;;;;;;;;;;3617792;39;20376;-68
2021/06/12 04:50:19;;;;;;;15.35;13.75;;;;;;;;;;3613157;39;20363;-68
2021/06/12 04:52:45;;;;;;;15.82;14.32;;;;;;;;;;3610009;39;20369;-68
2021/06/12 04:55:12;;;;;;;15.07;13.48;;;;;;;;;;3617717;39;20622;-68
2021/06/12 04:57:40;;;;;;;15.05;13.65;;;;;;;;;;3617545;39;20789;-68
2021/06/12 05:00:07;;;;;;;13.80;12.43;;;;;;;;;;3617930;39;20457;-68
2021/06/12 05:02:33;;;;;;;14.10;12.80;;;;;;;;;;3617384;39;20505;-68
2021/06/12 05:04:59;;;;;;;15.05;13.65;;;;;;;;;;3617832;39;20370;-68
2021/06/12 05:07:25;;;;;;;18.83;16.92;;;;;;;;;;3612512;39;20377;-68
2021/06/12 05:09:51;;;;;;;18.75;16.75;;;;;;;;;;3617191;39;20438;-69
2021/06/12 05:12:19;;;;;;;16.13;14.53;;;;;;;;;;3615557;39;20771;-68
2021/06/12 05:14:49;;;;;;;19.17;17.27;;;;;;;;;;3585355;40;20855;-68
2021/06/12 05:17:17;;;;;;;20.23;18.25;;;;;;;;;;3592030;40;21377;-68
2021/06/12 05:19:44;;;;;;;16.67;15.07;;;;;;;;;;3590147;40;20387;-69
2021/06/12 05:22:10;;;;;;;19.70;17.70;;;;;;;;;;3586846;40;20397;-68
2021/06/12 05:24:36;;;;;;;18.73;16.83;;;;;;;;;;3595448;40;20384;-68
2021/06/12 05:27:03;;;;;;;19.15;17.38;;;;;;;;;;3588719;40;20381;-68
2021/06/12 05:29:29;;;;;;;19.30;17.40;;;;;;;;;;3586644;40;20400;-68
2021/06/12 05:31:57;;;;;;;19.67;17.87;;;;;;;;;;3595535;40;20384;-68
2021/06/12 05:34:23;;;;;;;17.50;15.85;;;;;;;;;;3595364;40;20384;-68
2021/06/12 05:36:49;;;;;;;16.83;15.30;;;;;;;;;;3590519;40;20382;-68
2021/06/12 05:39:16;;;;;;;17.90;16.20;;;;;;;;;;3593222;40;20824;-68
2021/06/12 05:41:42;;;;;;;15.88;14.18;;;;;;;;;;3595290;40;20680;-68
2021/06/12 05:44:08;;;;;;;13.45;12.15;;;18.90;99.90;;;;;;3595579;40;20377;-70
2021/06/12 05:46:34;;;;;;;14.65;13.38;;;;;;;;;;3606873;39;20382;-69
2021/06/12 05:49:02;;;;;;;13.57;12.27;;;;;;;;;;3617423;39;20413;-68
2021/06/12 05:51:28;;;;;;;13.30;12.20;;;19.00;99.90;;;;;;3617496;39;20357;-68
2021/06/12 05:53:54;;;;;;;13.83;12.43;;;19.30;99.90;;;;;;3617432;39;20480;-68
2021/06/12 05:56:20;;;;;;;11.75;10.60;;;19.40;99.90;;;;;;3611376;39;20357;-68
2021/06/12 05:58:46;;;;;;;12.25;11.15;;;19.50;99.90;;;;;;3613847;39;20517;-69
2021/06/12 06:01:13;;;;;;;12.77;11.57;;;;;;;;;;3602593;39;20401;-68
2021/06/12 06:03:39;;;;;;;13.10;11.80;;;;;;;;;;3612834;39;20797;-69
2021/06/12 06:06:07;;;;;;;10.70;9.60;;;;;;;;;;3614466;39;20365;-68
2021/06/12 06:08:33;;;;;;;10.47;9.47;;;;;;;;;;3614979;39;20453;-68
2021/06/12 06:11:00;;;;;;;10.40;9.48;;;;;;;;;;3611443;39;20376;-68
2021/06/12 06:13:26;;;;;;;9.75;8.77;;;;;;;;;;3607598;39;20385;-68
2021/06/12 06:15:52;;;;;;;10.75;9.68;;;;;;;;;;3614301;39;20367;-68
2021/06/12 06:18:18;;;;;;;9.80;8.93;;;;;;;;;;3612808;39;20723;-69
2021/06/12 06:20:45;;;;;;;10.40;9.40;;;;;;;;;;3607687;39;20758;-69
2021/06/12 06:23:13;;;;;;;10.05;9.05;;;;;;;;;;3617033;39;20753;-69
2021/06/12 06:25:39;;;;;;;9.77;8.95;;;;;;;;;;3614398;39;20409;-69
2021/06/12 06:28:05;;;;;;;10.57;9.57;;;;;;;;;;3616501;39;20746;-69
2021/06/12 06:30:31;;;;;;;11.73;10.63;;;;;;;;;;3609678;39;20525;-71
2021/06/12 06:32:58;;;;;;;10.70;9.68;;;;;;;;;;3603932;39;20659;-69
2021/06/12 06:35:24;;;;;;;10.32;9.43;;;;;;;;;;3606794;39;20371;-68
2021/06/12 06:37:50;;;;;;;10.90;9.80;;;19.60;99.90;;;;;;3616173;39;20464;-69
2021/06/12 06:40:20;;;;;;;7.68;6.97;;;;;;;;;;3611622;39;20359;-68
2021/06/12 06:42:46;;;;;;;6.45;5.85;;;;;;;;;;3613392;39;20517;-68
2021/06/12 06:45:13;;;;;;;6.43;5.72;;;;;;;;;;3617171;39;20781;-68
2021/06/12 06:47:39;;;;;;;5.57;5.07;;;;;;;;;;3616946;39;20365;-68
2021/06/12 06:50:05;;;;;;;5.70;5.20;;;;;;;;;;3613519;39;20382;-65
2021/06/12 06:52:31;;;;;;;6.60;5.95;;;;;;;;;;3616181;39;20406;-67
2021/06/12 06:54:58;;;;;;;6.43;5.80;;;;;;;;;;3617044;39;20388;-66
2021/06/12 06:57:26;;;;;;;5.05;4.53;;;;;;;;;;3617027;39;20761;-66
2021/06/12 06:59:52;;;;;;;4.40;4.03;;;;;;;;;;3614888;39;20402;-66
2021/06/12 07:02:18;;;;;;;6.03;5.50;;;;;;;;;;3604085;39;20425;-66
2021/06/12 07:04:44;;;;;;;5.47;5.07;;;;;;;;;;3610191;39;20365;-66
2021/06/12 07:07:10;;;;;;;5.38;4.90;;;;;;;;;;3616617;39;20750;-66
2021/06/12 07:09:37;;;;;;;5.20;4.70;;;;;;;;;;3617060;39;20823;-66
2021/06/12 07:12:03;;;;;;;5.85;5.18;;;;;;;;;;3600351;39;20653;-66
2021/06/12 07:14:31;;;;;;;5.93;5.35;;;;;;;;;;3616855;39;20630;-66
2021/06/12 07:16:58;;;;;;;6.65;6.00;;;;;;;;;;3616536;39;20414;-70
2021/06/12 07:19:24;;;;;;;6.38;5.82;;;;;;;;;;3609738;39;20711;-68
2021/06/12 07:21:50;;;;;;;6.13;5.60;;;;;;;;;;3601077;39;20382;-69
2021/06/12 07:24:16;;;;;;;6.40;5.50;;;23.00;99.90;;;;;;3599351;39;20529;-66
2021/06/12 07:26:43;;;;;;;6.32;5.70;;;23.00;99.90;;;;;;3616252;39;20401;-66
2021/06/12 07:29:09;;;;;;;7.20;6.50;;;;;;;;;;3616770;39;20369;-66
2021/06/12 07:31:37;;;;;;;5.50;5.00;;;;;;;;;;3614216;39;20376;-67
2021/06/12 07:34:03;;;;;;;6.03;5.50;;;;;;;;;;3616740;39;20357;-65
2021/06/12 07:36:29;;;;;;;7.00;6.40;;;;;;;;;;3615550;39;20357;-66
2021/06/12 07:38:55;;;;;;;7.35;6.68;;;;;;;;;;3602374;39;20409;-66
2021/06/12 07:41:22;;;;;;;7.78;6.97;;;;;;;;;;3610853;39;20396;-66
2021/06/12 07:43:48;;;;;;;9.70;8.10;;;;;;;;;;3608611;39;20392;-66
2021/06/12 07:46:14;;;;;;;8.70;7.93;;;;;;;;;;3608337;39;20508;-69
2021/06/12 07:48:42;;;;;;;8.68;7.88;;;;;;;;;;3615085;39;20426;-67
2021/06/12 07:51:08;;;;;;;8.60;7.90;;;;;;;;;;3616096;39;20477;-67
2021/06/12 07:53:35;;;;;;;7.28;6.57;;;;;;;;;;3608212;39;20433;-68
2021/06/12 07:56:01;;;;;;;7.47;6.78;;;;;;;;;;3606841;39;20397;-68
2021/06/12 07:58:27;;;;;;;8.35;7.50;;;24.20;99.90;;;;;;3616103;39;20388;-68
2021/06/12 08:00:53;;;;;;;7.82;7.03;;;24.40;99.90;;;;;;3617232;39;20397;-67
2021/06/12 08:03:19;;;;;;;10.95;9.18;;;;;;;;;;3616022;39;20425;-68
2021/06/12 08:05:47;;;;;;;10.27;9.27;;;;;;;;;;3616223;39;20381;-69
2021/06/12 08:08:13;;;;;;;7.28;6.57;;;;;;;;;;3613520;39;20381;-68
2021/06/12 08:10:39;;;;;;;8.98;8.07;;;;;;;;;;3616681;39;20611;-69
2021/06/12 08:13:06;;;;;;;8.10;7.15;;;;;;;;;;3616128;39;20762;-68
2021/06/12 08:15:32;;;;;;;6.70;5.80;;;;;;;;;;3616650;39;20380;-68
2021/06/12 08:17:58;;;;;;;7.35;6.68;;;;;;;;;;3616718;39;20809;-67
2021/06/12 08:20:24;;;;;;;7.72;5.70;;;;;;;;;;3617067;39;20513;-67
2021/06/12 08:22:52;;;;;;;9.07;8.27;;;;;;;;;;3617649;39;20373;-67
2021/06/12 08:25:18;;;;;;;9.13;8.18;;;;;;;;;;3617502;39;20369;-68
2021/06/12 08:27:44;;;;;;;8.33;7.57;;;;;;;;;;3617208;39;20373;-67
2021/06/12 08:30:11;;;;;;;8.88;8.07;;;;;;;;;;3617810;39;20358;-67
2021/06/12 08:32:38;;;;;;;7.00;6.37;;;25.10;97.00;;;;;;3608132;39;20381;-67
2021/06/12 08:35:05;;;;;;;8.00;7.28;;;25.90;96.60;;;;;;3617453;39;20749;-67
2021/06/12 08:37:32;;;;;;;8.80;7.40;;;;;;;;;;3615390;39;20394;-68
2021/06/12 08:39:59;;;;;;;8.75;7.50;;;;;;;;;;3616456;39;20753;-68
2021/06/12 08:42:25;;;;;;;9.10;8.20;;;;;;;;;;3617674;39;20404;-69
2021/06/12 08:44:53;;;;;;;8.32;7.53;;;;;;;;;;3617898;39;20405;-67
2021/06/12 08:47:19;;;;;;;8.07;7.28;;;26.00;96.60;;;;;;3622724;39;20620;-68
2021/06/12 08:49:45;;;;;;;6.68;6.03;;;26.50;95.30;;;;;;3609076;39;20852;-68
2021/06/12 08:52:11;;;;;;;9.88;8.88;;;26.50;95.80;;;;;;3606932;39;20385;-67
2021/06/12 08:54:41;;;;;;;11.25;10.10;;;26.40;95.90;;;;;;3611286;39;20365;-68
2021/06/12 08:57:09;;;;;;;8.27;7.57;;;26.40;96.40;;;;;;3614999;39;20457;-73
2021/06/12 08:59:36;;;;;;;10.27;9.32;;;26.40;95.90;;;;;;3612901;39;20405;-68
2021/06/12 09:02:02;;;;;;;11.10;9.52;;;26.40;96.40;;;;;;3614897;39;20403;-68
2021/06/12 09:04:29;;;;;;;9.27;8.40;;;;;;;;;;3612977;39;20409;-68
2021/06/12 09:07:23;;;;;;;9.77;8.82;;;26.40;96.70;;;;;;3617456;39;20387;-68
2021/06/12 09:09:51;;;;;;;11.60;10.50;;;26.90;96.50;;;;;;3599482;39;20491;-68
2021/06/12 09:12:19;;;;;;;11.73;10.55;;;26.90;95.90;;;;;;3615566;39;20368;-68
2021/06/12 09:15:00;;;;;;;10.57;9.68;;;;;;;;;;3617716;39;20764;-68
2021/06/12 09:17:36;;;;;;;9.40;8.50;;;;;;;;;;3608504;39;20391;-68
2021/06/12 09:20:03;;;;;;;10.55;9.45;;;;;;;;;;3617578;39;20357;-68
2021/06/12 09:22:29;;;;;;;12.10;11.00;;;;;;;;;;3599487;39;20404;-68
2021/06/12 09:24:55;;;;;;;9.80;8.90;;;;;;;;;;3617267;39;20376;-68
2021/06/12 09:27:23;;;;;;;11.27;10.13;;;;;;;;;;3617372;39;20369;-68
2021/06/12 09:29:50;;;;;;;11.23;10.20;;;;;;;;;;3617601;39;20459;-68
2021/06/12 09:32:18;;;;;;;10.35;9.35;;;;;;;;;;3607626;39;20385;-68
2021/06/12 09:34:46;;;;;;;12.18;11.07;;;;;;;;;;3617655;39;20838;-68
2021/06/12 09:37:15;;;;;;;11.05;10.05;;;26.90;95.70;;;;;;3617401;39;20365;-68
2021/06/12 09:39:41;;;;;;;11.68;10.48;;;28.10;94.80;;;;;;3617150;39;20765;-68
2021/06/12 09:42:07;;;;;;;10.48;9.38;;;28.00;94.70;;;;;;3617331;39;20369;-68
2021/06/12 09:44:37;;;;;;;10.75;9.65;;;28.10;93.10;;;;;;3615334;39;20379;-68
2021/06/12 09:47:05;;;;;;;10.48;9.57;;;28.10;93.20;;;;;;3590089;39;20404;-68
2021/06/12 09:49:35;;;;;;;12.05;10.88;;;28.00;93.60;;;;;;3587838;39;20400;-68
2021/06/12 09:52:07;;;;;;;12.25;11.15;;;27.90;95.20;;;;;;3589578;40;20400;-69
2021/06/12 09:54:39;;;;;;;13.82;12.52;;;27.90;93.70;;;;;;3595383;40;20395;-68
2021/06/12 09:57:06;;;;;;;12.10;10.93;;;27.70;94.30;;;;;;3595211;40;20440;-68
2021/06/12 09:59:45;;;;;;;14.27;12.88;;;27.80;96.50;;;;;;3595486;39;20460;-69
2021/06/12 10:02:12;;;;;;;16.53;14.93;;;28.10;94.70;;;;;;3596845;39;20381;-68
2021/06/12 10:04:56;;;;;;;13.35;12.05;;;28.00;94.10;;;;;;3587737;40;20846;-68
2021/06/12 10:07:23;;;;;;;14.02;12.73;;;28.20;94.20;;;;;;3587980;40;20737;-68
2021/06/12 10:09:50;;;;;;;13.52;12.27;;;;;;;;;;3589024;40;20386;-69
2021/06/12 10:12:16;;;;;;;13.52;12.25;;;28.50;93.70;;;;;;3586025;40;20423;-69
2021/06/12 10:14:46;;;;;;;7.93;7.20;;;28.50;93.20;;;;;;3590426;40;20426;-68
2021/06/12 10:17:12;;;;;;;9.43;8.45;;;;;;;;;;3578602;40;20745;-68
2021/06/12 10:19:39;;;;;;;9.77;8.88;;;;;;;;;;3593142;40;20651;-68
2021/06/12 10:22:06;;;;;;;9.70;8.80;;;;;;;;;;3593968;40;20625;-68
2021/06/12 10:24:32;;;;;;;8.65;7.85;;;;;;;;;;3595663;40;20387;-68
2021/06/12 10:26:59;;;;;;;9.90;9.02;;;;;;;;;;3590084;40;20393;-68
2021/06/12 10:29:25;;;;;;;10.80;9.90;;;;;;;;;;3597959;39;20373;-68
2021/06/12 10:31:53;;;;;;;8.25;7.47;;;;;;;;;;3597558;39;20446;-68
2021/06/12 10:34:24;;;;;;;8.27;7.47;;;;;;;;;;3597325;39;20379;-68
2021/06/12 10:36:57;;;;;;;7.60;6.63;;;;;;;;;;3595862;40;20365;-68
2021/06/12 10:39:28;;;;;;;9.70;8.88;;;;;;;;;;3597231;39;20707;-68
2021/06/12 10:42:13;;;;;;;10.73;9.73;;;;;;;;;;3573846;40;20750;-69
2021/06/12 10:44:40;;;;;;;8.50;7.80;;;28.60;93.70;;;;;;3565480;40;20501;-68
2021/06/12 10:47:08;;;;;;;7.90;7.20;;;28.80;91.80;;;;;;3575632;40;20384;-68
2021/06/12 10:49:34;;;;;;;12.77;11.57;;;29.00;92.30;;;;;;3574673;40;20393;-69
2021/06/12 10:52:01;;;;;;;12.03;10.93;;;29.10;92.40;;;;;;3579299;40;20387;-68
2021/06/12 10:54:32;;;;;;;9.77;8.82;;;29.10;92.30;;;;;;3566855;40;20808;-69
2021/06/12 10:57:00;;;;;;;11.55;10.45;;;29.10;92.20;;;;;;3578215;40;20396;-71
2021/06/12 10:59:48;;;;;;;11.75;10.65;;;29.00;92.20;;;;;;3567500;40;20438;-69
2021/06/12 11:02:20;;;;;;;13.20;12.02;;;;;;;;;;3567064;40;20412;-69
2021/06/12 11:04:51;;;;;;;11.02;9.95;;;;;;;;;;3583770;40;20402;-69
2021/06/12 11:07:28;;;;;;;9.00;8.20;;;;;;;;;;3584415;40;20392;-68
2021/06/12 11:10:16;;;;;;;11.90;10.88;;;;;;;;;;3573666;40;20378;-68
2021/06/12 11:12:43;;;;;;;11.55;10.55;;;;;;;;;;3581299;39;20393;-68
2021/06/12 11:15:14;;;;;;;13.93;12.45;;;29.10;92.90;;;;;;3598995;39;20395;-67
2021/06/12 11:17:43;;;;;;;16.95;15.25;;;29.60;91.70;;;;;;3600002;39;20740;-65
2021/06/12 11:20:29;;;;;;;16.13;14.55;;;29.50;92.30;;;;;;3606473;39;20386;-65
2021/06/12 11:23:01;;;;;;;13.57;12.32;;;29.60;90.60;;;;;;3600495;39;20363;-65
2021/06/12 11:25:55;;;;;;;14.77;13.27;;;29.50;91.60;;;;;;3598575;39;20463;-65
2021/06/12 11:28:22;;;;;;;35.67;16.55;;;;;;;;;;3606483;39;20386;-65
2021/06/12 11:30:49;;;;;;;17.35;15.00;;;29.30;91.90;;;;;;3606422;39;20371;-65
2021/06/12 11:33:17;;;;;;;17.35;15.75;;;29.00;92.80;;;;;;3606514;39;20387;-66
2021/06/12 11:35:46;;;;;;;16.92;15.13;;;;;;;;;;3606312;39;20387;-68
2021/06/12 11:38:14;;;;;;;16.23;14.55;;;28.80;92.30;;;;;;3599836;39;20398;-67
2021/06/12 11:40:51;;;;;;;24.73;14.73;;;28.90;91.90;;;;;;3599734;39;20423;-68
2021/06/12 11:43:29;;;;;;;16.45;14.77;;;28.90;92.70;;;;;;3600146;39;20733;-68
2021/06/12 11:45:55;;;;;;;15.32;13.88;;;29.20;92.00;;;;;;3606437;39;20632;-65
2021/06/12 11:48:25;;;;;;;14.57;13.18;;;29.30;92.30;;;;;;3605474;39;20393;-66
2021/06/12 11:50:51;;;;;;;9.07;8.18;;;29.40;91.50;;;;;;3605154;39;20655;-66
2021/06/12 11:53:19;;;;;;;5.75;5.35;;;29.30;91.50;;;;;;3603624;39;20793;-68
2021/06/12 11:55:45;;;;;;;6.72;6.10;;;29.50;90.10;;;;;;3606407;39;20371;-67
2021/06/12 11:58:15;;;;;;;29.45;9.30;;;29.90;89.40;;;;;;3606229;39;20391;-64
2021/06/12 12:00:44;;;;;;;6.20;5.60;;;30.00;91.00;;;;;;3606197;39;20391;-64
2021/06/12 12:03:12;;;;;;;6.82;6.22;;;30.20;90.60;;;;;;3609604;39;20478;-64
2021/06/12 12:05:41;;;;;;;5.78;5.28;;;30.20;90.00;;;;;;3613339;39;20434;-64
2021/06/12 12:08:08;;;;;;;4.63;4.32;;;30.40;83.90;;;;;;3613692;39;20468;-64
2021/06/12 12:10:35;;;;;;;5.45;4.95;;;30.40;90.40;;;;;;3613617;39;20416;-62
2021/06/12 12:13:01;;;;;;;6.05;5.47;;;30.50;86.50;;;;;;3616361;39;20393;-64
2021/06/12 12:15:34;;;;;;;5.63;4.75;;;30.40;85.70;;;;;;3616254;39;20380;-63
2021/06/12 12:18:04;;;;;;;6.22;5.63;;;30.10;82.80;;;;;;3606803;39;20366;-63
2021/06/12 12:20:36;;;;;;;6.28;5.78;;;29.80;84.00;;;;;;3611607;39;20366;-64
2021/06/12 12:23:16;;;;;;;5.50;5.00;;;30.20;85.70;;;;;;3615076;39;20366;-63
2021/06/12 12:25:42;;;;;;;6.55;5.95;;;;;;;;;;3615488;39;20770;-63
2021/06/12 12:28:10;;;;;;;8.13;7.43;;;;;;;;;;3603103;39;20501;-67
2021/06/12 12:30:36;;;;;;;6.72;6.05;;;;;;;;;;3612368;39;20749;-64
2021/06/12 12:33:07;;;;;;;7.10;6.40;;;30.50;86.10;;;;;;3603787;39;20381;-64
2021/06/12 12:35:33;;;;;;;6.10;5.57;;;30.80;84.20;;;;;;3612700;39;20390;-63
2021/06/12 12:38:16;;;;;;;6.47;5.88;;;31.00;82.10;;;;;;3613227;39;20410;-64
2021/06/12 12:40:43;;;;;;;4.85;4.45;;;31.20;83.20;;;;;;3591216;39;20384;-63
2021/06/12 12:43:11;;;;;;;7.28;6.68;;;31.10;82.20;;;;;;3591581;40;20388;-64
2021/06/12 12:45:38;;;;;;;6.65;6.05;;;;;;;;;;3592692;39;20392;-63
2021/06/12 12:48:04;;;;;;;5.85;5.35;;;;;;;;;;3591967;39;20403;-63
2021/06/12 12:50:30;;;;;;;5.28;4.78;;;31.20;82.30;;;;;;3589667;40;20473;-63
2021/06/12 12:53:05;;;;;;;5.63;4.90;;;31.20;81.80;;;;;;3574104;39;20689;-64
2021/06/12 12:55:33;;;;;;;8.27;7.57;;;;;;;;;;3581824;40;20392;-63
2021/06/12 12:58:00;;;;;;;4.57;4.13;;;;;;;;;;3592485;39;20483;-63
2021/06/12 13:00:28;;;;;;;4.40;4.10;;;31.40;82.80;;;;;;3590676;40;21072;-63
2021/06/12 13:02:56;;;;;;;4.95;4.55;;;31.90;79.50;;;;;;3581027;40;20406;-63
2021/06/12 13:05:22;;;;;;;6.43;5.82;;;32.10;80.80;;;;;;3582382;40;20388;-62
2021/06/12 13:08:02;;;;;;;6.75;4.90;;;32.40;79.80;;;;;;3581339;40;20398;-63
2021/06/12 13:10:32;;;;;;;5.32;4.88;;;32.20;80.60;;;;;;3591565;40;20372;-63
2021/06/12 13:13:00;;;;;;;6.53;5.20;;;32.30;78.60;;;;;;3592572;39;20369;-63
2021/06/12 13:15:26;;;;;;;6.50;5.18;;;32.30;77.00;;;;;;3590164;40;20705;-63
2021/06/12 13:18:04;;;;;;;6.53;5.93;;;31.70;76.70;;;;;;3591848;40;20389;-63
2021/06/12 13:20:30;;;;;;;6.75;6.20;;;31.70;78.70;;;;;;3583077;40;20886;-63
2021/06/12 13:22:56;;;;;;;5.15;4.65;;;31.50;78.30;;;;;;3591377;39;20399;-65
2021/06/12 13:25:23;;;;;;;5.90;5.40;;;31.70;78.00;;;;;;3581921;40;20399;-63
2021/06/12 13:27:54;;;;;;;5.85;5.25;;;31.80;76.80;;;;;;3582126;40;20396;-63
2021/06/12 13:30:33;;;;;;;5.90;5.37;;;31.80;77.50;;;;;;3591566;39;20416;-63
2021/06/12 13:33:01;;;;;;;6.10;5.50;;;31.80;82.30;;;;;;3591509;39;20402;-63
2021/06/12 13:35:28;;;;;;;6.93;5.30;;;;;;;;;;3582862;40;20398;-64
2021/06/12 13:38:04;;;;;;;6.13;4.97;;;;;;;;;;3591859;39;20385;-63
2021/06/12 13:40:30;;;;;;;5.72;5.18;;;;;;;;;;3590663;39;20786;-63
2021/06/12 13:42:58;;;;;;;5.20;4.70;;;;;;;;;;3583482;40;20483;-63
2021/06/12 13:45:24;;;;;;;6.22;5.63;;;31.90;82.00;;;;;;3582209;40;20404;-63
2021/06/12 13:47:50;;;;;;;5.65;5.15;;;33.10;75.90;;;;;;3582171;39;20395;-63
2021/06/12 13:50:16;;;;;;;5.07;4.57;;;32.90;73.40;;;;;;3591509;39;20388;-64
2021/06/12 13:52:43;;;;;;;7.10;6.50;;;32.70;76.20;;;;;;3582536;39;20789;-63
2021/06/12 13:55:13;;;;;;;6.20;5.70;;;32.50;75.50;;;;;;3593026;39;20412;-64
2021/06/12 13:57:39;;;;;;;7.70;6.85;;;32.60;78.40;;;;;;3582435;40;20390;-64